createdAt,value
2018-01-29T00:02:08.643Z,3.27
2018-01-29T00:04:35.773Z,3.33
2018-01-29T00:07:03.229Z,3.50
2018-01-29T00:09:29.697Z,2.77
2018-01-29T00:11:56.866Z,2.67
2018-01-29T00:14:24.045Z,2.20
2018-01-29T00:16:50.522Z,3.00
2018-01-29T00:19:16.959Z,2.40
2018-01-29T00:21:43.369Z,2.23
2018-01-29T00:24:09.808Z,1.90
2018-01-29T00:26:36.241Z,2.00
2018-01-29T00:29:02.977Z,2.07
2018-01-29T00:31:29.391Z,2.17
2018-01-29T00:33:55.812Z,2.07
2018-01-29T00:36:23.007Z,2.10
2018-01-29T00:38:49.429Z,2.30
2018-01-29T00:41:15.817Z,2.10
2018-01-29T00:43:42.974Z,2.33
2018-01-29T00:46:09.418Z,2.30
2018-01-29T00:48:36.596Z,1.37
2018-01-29T00:51:03.638Z,2.50
2018-01-29T00:53:30.135Z,2.60
2018-01-29T00:55:56.618Z,1.80
2018-01-29T00:58:23.067Z,2.70
2018-01-29T01:00:49.517Z,2.17
2018-01-29T01:03:15.941Z,2.50
2018-01-29T01:05:42.358Z,2.17
2018-01-29T01:08:09.313Z,2.40
2018-01-29T01:10:35.825Z,2.60
2018-01-29T01:13:03.379Z,2.37
2018-01-29T01:15:29.805Z,2.70
2018-01-29T01:17:56.250Z,2.40
2018-01-29T01:20:22.674Z,2.60
2018-01-29T01:22:49.090Z,3.00
2018-01-29T01:25:16.313Z,2.30
2018-01-29T01:27:42.713Z,2.30
2018-01-29T01:30:09.303Z,2.80
2018-01-29T01:32:36.593Z,2.77
2018-01-29T01:35:03.424Z,2.43
2018-01-29T01:37:29.923Z,2.50
2018-01-29T01:39:56.340Z,2.83
2018-01-29T01:42:23.508Z,2.70
2018-01-29T01:44:50.115Z,2.53
2018-01-29T01:47:17.297Z,2.47
2018-01-29T01:49:43.689Z,2.30
2018-01-29T01:52:10.258Z,2.53
2018-01-29T01:54:37.477Z,1.50
2018-01-29T01:57:05.302Z,2.60
2018-01-29T01:59:32.486Z,2.30
2018-01-29T02:02:00.470Z,2.70
2018-01-29T02:04:27.650Z,2.10
2018-01-29T02:06:54.084Z,2.30
2018-01-29T02:09:21.250Z,2.30
2018-01-29T02:11:47.662Z,1.93
2018-01-29T02:14:14.122Z,1.70
2018-01-29T02:16:40.599Z,1.93
2018-01-29T02:19:07.155Z,2.17
2018-01-29T02:21:33.610Z,2.67
2018-01-29T02:24:00.070Z,2.27
2018-01-29T02:26:26.466Z,2.13
2018-01-29T02:28:52.885Z,2.40
2018-01-29T02:31:19.273Z,2.83
2018-01-29T02:33:45.716Z,2.90
2018-01-29T02:36:12.148Z,2.27
2018-01-29T02:38:38.602Z,2.40
2018-01-29T02:41:05.685Z,2.00
2018-01-29T02:43:32.172Z,2.07
2018-01-29T02:45:59.349Z,2.07
2018-01-29T02:48:25.785Z,1.67
2018-01-29T02:50:52.272Z,2.07
2018-01-29T02:53:19.365Z,1.67
2018-01-29T02:55:46.010Z,2.10
2018-01-29T02:58:12.429Z,2.37
2018-01-29T03:00:38.885Z,1.83
2018-01-29T03:03:06.394Z,2.40
2018-01-29T03:05:32.811Z,1.80
2018-01-29T03:07:59.961Z,2.00
2018-01-29T03:10:26.353Z,2.00
2018-01-29T03:12:52.781Z,2.70
2018-01-29T03:15:19.258Z,2.17
2018-01-29T03:17:45.671Z,2.43
2018-01-29T03:20:12.104Z,2.87
2018-01-29T03:22:39.245Z,2.70
2018-01-29T03:25:07.912Z,2.70
2018-01-29T03:27:34.329Z,2.47
2018-01-29T03:30:00.759Z,2.67
2018-01-29T03:32:27.206Z,3.13
2018-01-29T03:34:53.629Z,2.73
2018-01-29T03:37:20.786Z,2.63
2018-01-29T03:39:47.240Z,2.63
2018-01-29T03:42:13.679Z,2.23
2018-01-29T03:44:40.101Z,2.50
2018-01-29T03:47:07.313Z,2.07
2018-01-29T03:49:33.734Z,2.67
2018-01-29T03:52:00.151Z,3.53
2018-01-29T03:54:27.331Z,3.13
2018-01-29T03:56:53.729Z,3.17
2018-01-29T03:59:20.149Z,2.63
2018-01-29T04:01:46.552Z,3.90
2018-01-29T04:04:12.973Z,2.47
2018-01-29T04:06:39.396Z,2.90
2018-01-29T04:09:06.186Z,3.27
2018-01-29T04:11:32.596Z,2.30
2018-01-29T04:13:59.043Z,2.10
2018-01-29T04:16:26.312Z,2.63
2018-01-29T04:18:52.734Z,3.03
2018-01-29T04:21:19.248Z,2.73
2018-01-29T04:23:45.863Z,3.03
2018-01-29T04:26:12.304Z,3.03
2018-01-29T04:28:38.859Z,2.77
2018-01-29T04:31:05.797Z,2.90
2018-01-29T04:33:32.262Z,2.40
2018-01-29T04:35:58.646Z,3.83
2018-01-29T04:38:25.055Z,3.30
2018-01-29T04:40:51.487Z,3.40
2018-01-29T04:43:17.891Z,2.60
2018-01-29T04:45:44.345Z,3.50
2018-01-29T04:48:10.910Z,2.40
2018-01-29T04:50:38.103Z,2.53
2018-01-29T04:53:06.063Z,2.90
2018-01-29T04:55:32.501Z,3.00
2018-01-29T04:58:00.394Z,2.17
2018-01-29T05:00:26.874Z,2.80
2018-01-29T05:02:54.181Z,2.93
2018-01-29T05:05:20.694Z,2.73
2018-01-29T05:07:47.242Z,2.40
2018-01-29T05:10:13.701Z,2.47
2018-01-29T05:12:40.247Z,2.80
2018-01-29T05:15:06.971Z,2.67
2018-01-29T05:17:33.496Z,2.60
2018-01-29T05:20:00.349Z,2.27
2018-01-29T05:22:27.259Z,2.00
2018-01-29T05:24:53.699Z,2.30
2018-01-29T05:27:20.258Z,3.40
2018-01-29T05:29:46.787Z,2.30
2018-01-29T05:32:13.350Z,2.00
2018-01-29T05:34:39.787Z,3.23
2018-01-29T05:37:13.096Z,2.10
2018-01-29T05:39:39.522Z,2.30
2018-01-29T05:42:06.904Z,2.63
2018-01-29T05:44:33.362Z,2.23
2018-01-29T05:47:00.626Z,2.13
2018-01-29T05:49:27.080Z,2.40
2018-01-29T05:51:53.632Z,2.57
2018-01-29T05:54:20.058Z,1.80
2018-01-29T05:56:46.492Z,2.40
2018-01-29T05:59:13.747Z,2.10
2018-01-29T06:01:40.333Z,2.40
2018-01-29T06:04:07.537Z,2.10
2018-01-29T06:06:33.993Z,3.03
2018-01-29T06:09:00.442Z,1.90
2018-01-29T06:11:26.858Z,2.27
2018-01-29T06:13:53.299Z,1.80
2018-01-29T06:16:19.746Z,1.93
2018-01-29T06:18:46.216Z,2.33
2018-01-29T06:21:13.106Z,2.77
2018-01-29T06:23:39.614Z,2.30
2018-01-29T06:26:06.466Z,2.17
2018-01-29T06:28:32.912Z,2.17
2018-01-29T06:30:59.440Z,2.97
2018-01-29T06:33:26.044Z,2.57
2018-01-29T06:35:52.563Z,2.10
2018-01-29T06:38:18.981Z,2.80
2018-01-29T06:40:45.557Z,2.13
2018-01-29T06:43:12.151Z,2.43
2018-01-29T06:45:38.637Z,2.30
2018-01-29T06:48:05.709Z,2.60
2018-01-29T06:50:32.241Z,3.00
2018-01-29T06:52:58.743Z,2.50
2018-01-29T06:55:25.278Z,2.43
2018-01-29T06:57:51.850Z,2.50
2018-01-29T07:00:19.286Z,1.80
2018-01-29T07:02:45.900Z,2.70
2018-01-29T07:05:12.468Z,2.27
2018-01-29T07:07:39.749Z,2.70
2018-01-29T07:10:06.964Z,2.37
2018-01-29T07:12:33.818Z,1.67
2018-01-29T07:15:01.518Z,2.50
2018-01-29T07:17:28.257Z,2.30
2018-01-29T07:19:54.806Z,2.33
2018-01-29T07:22:21.455Z,2.90
2018-01-29T07:24:48.559Z,2.87
2018-01-29T07:27:15.263Z,1.93
2018-01-29T07:29:42.091Z,2.40
2018-01-29T07:32:08.726Z,2.60
2018-01-29T07:34:35.468Z,2.57
2018-01-29T07:37:02.221Z,2.20
2018-01-29T07:39:28.887Z,2.70
2018-01-29T07:41:55.522Z,1.90
2018-01-29T07:44:22.083Z,2.33
2018-01-29T07:46:49.414Z,1.80
2018-01-29T07:49:16.067Z,2.20
2018-01-29T07:51:42.762Z,2.00
2018-01-29T07:54:10.123Z,2.23
2018-01-29T07:56:36.781Z,1.80
2018-01-29T07:59:03.732Z,2.10
2018-01-29T08:01:31.059Z,2.00
2018-01-29T08:03:57.577Z,2.23
2018-01-29T08:06:24.878Z,2.57
2018-01-29T08:08:51.404Z,1.83
2018-01-29T08:13:44.703Z,2.13
2018-01-29T08:16:12.259Z,2.07
2018-01-29T08:18:39.536Z,2.60
2018-01-29T08:21:06.156Z,2.00
2018-01-29T08:23:33.448Z,1.77
2018-01-29T08:25:59.970Z,2.03
2018-01-29T08:28:26.487Z,1.97
2018-01-29T08:30:53.054Z,2.10
2018-01-29T08:33:20.502Z,1.93
2018-01-29T08:35:47.314Z,1.40
2018-01-29T08:38:13.968Z,1.93
2018-01-29T08:40:40.601Z,1.63
2018-01-29T08:43:07.075Z,1.77
2018-01-29T08:45:33.663Z,2.20
2018-01-29T08:48:00.327Z,1.57
2018-01-29T08:50:26.813Z,2.10
2018-01-29T08:52:53.349Z,1.30
2018-01-29T08:55:20.287Z,2.00
2018-01-29T08:57:47.522Z,1.83
2018-01-29T09:00:14.070Z,2.70
2018-01-29T09:02:40.582Z,1.17
2018-01-29T09:05:07.205Z,1.73
2018-01-29T09:07:33.672Z,1.60
2018-01-29T09:10:00.539Z,1.53
2018-01-29T09:12:27.307Z,1.47
2018-01-29T09:14:53.898Z,1.43
2018-01-29T09:17:20.336Z,1.43
2018-01-29T09:19:47.036Z,1.67
2018-01-29T09:22:13.556Z,1.73
2018-01-29T09:24:40.096Z,1.13
2018-01-29T09:27:06.616Z,1.10
2018-01-29T09:29:33.190Z,2.40
2018-01-29T09:31:59.775Z,1.33
2018-01-29T09:34:26.445Z,1.67
2018-01-29T09:36:54.675Z,1.53
2018-01-29T09:39:22.320Z,1.60
2018-01-29T09:41:48.830Z,1.87
2018-01-29T09:44:15.414Z,1.40
2018-01-29T09:46:42.480Z,1.30
2018-01-29T09:49:09.800Z,1.10
2018-01-29T09:51:37.096Z,1.10
2018-01-29T09:54:04.282Z,1.20
2018-01-29T09:56:31.604Z,1.30
2018-01-29T09:58:58.774Z,1.63
2018-01-29T10:01:25.538Z,1.83
2018-01-29T10:03:52.886Z,1.40
2018-01-29T10:06:19.438Z,1.20
2018-01-29T10:08:46.638Z,1.00
2018-01-29T10:11:13.118Z,1.30
2018-01-29T10:13:39.776Z,1.70
2018-01-29T10:16:06.833Z,1.10
2018-01-29T10:18:34.138Z,1.17
2018-01-29T10:21:01.399Z,1.07
2018-01-29T10:23:28.736Z,1.10
2018-01-29T10:25:55.282Z,1.47
2018-01-29T10:28:21.931Z,1.20
2018-01-29T10:30:48.505Z,1.40
2018-01-29T10:33:15.949Z,1.23
2018-01-29T10:35:42.483Z,1.43
2018-01-29T10:38:09.274Z,1.40
2018-01-29T10:40:35.802Z,1.00
2018-01-29T10:43:02.790Z,1.53
2018-01-29T10:45:29.794Z,1.53
2018-01-29T10:47:56.718Z,1.30
2018-01-29T10:50:23.200Z,1.47
2018-01-29T10:52:49.832Z,1.60
2018-01-29T10:55:17.099Z,1.90
2018-01-29T10:57:43.841Z,1.40
2018-01-29T11:00:10.529Z,1.47
2018-01-29T11:02:37.768Z,1.13
2018-01-29T11:05:04.823Z,1.60
2018-01-29T11:07:32.061Z,1.77
2018-01-29T11:09:58.644Z,2.00
2018-01-29T11:12:25.252Z,1.13
2018-01-29T11:14:51.840Z,1.80
2018-01-29T11:17:19.147Z,1.00
2018-01-29T11:19:45.863Z,1.70
2018-01-29T11:22:13.094Z,1.60
2018-01-29T11:24:39.619Z,1.73
2018-01-29T11:27:06.641Z,1.50
2018-01-29T11:29:33.696Z,2.47
2018-01-29T11:32:01.054Z,1.57
2018-01-29T11:34:27.612Z,1.20
2018-01-29T11:36:54.169Z,1.53
2018-01-29T11:39:20.684Z,1.80
2018-01-29T11:41:47.287Z,2.13
2018-01-29T11:44:14.553Z,1.17
2018-01-29T11:46:41.058Z,1.30
2018-01-29T11:49:07.555Z,1.70
2018-01-29T11:51:34.028Z,1.50
2018-01-29T11:54:01.435Z,1.40
2018-01-29T11:56:27.968Z,1.70
2018-01-29T11:58:54.461Z,1.57
2018-01-29T12:01:21.719Z,2.07
2018-01-29T12:03:48.183Z,2.93
2018-01-29T12:06:14.724Z,2.30
2018-01-29T12:08:41.957Z,1.83
2018-01-29T12:11:08.551Z,1.30
2018-01-29T12:13:35.097Z,2.40
2018-01-29T12:16:02.732Z,1.60
2018-01-29T12:18:29.247Z,1.47
2018-01-29T12:20:56.006Z,2.30
2018-01-29T12:23:22.563Z,2.13
2018-01-29T12:25:49.289Z,2.13
2018-01-29T12:28:16.515Z,1.93
2018-01-29T12:30:43.903Z,1.73
2018-01-29T12:33:10.522Z,1.63
2018-01-29T12:35:37.670Z,1.40
2018-01-29T12:38:05.093Z,2.13
2018-01-29T12:40:31.826Z,1.63
2018-01-29T12:42:58.403Z,2.27
2018-01-29T12:45:24.953Z,1.50
2018-01-29T12:47:51.475Z,1.57
2018-01-29T12:50:18.736Z,1.97
2018-01-29T12:52:45.672Z,2.07
2018-01-29T12:55:12.180Z,1.83
2018-01-29T12:57:38.721Z,2.40
2018-01-29T13:00:05.849Z,2.13
2018-01-29T13:02:32.428Z,2.13
2018-01-29T13:04:59.002Z,2.00
2018-01-29T13:07:25.482Z,2.03
2018-01-29T13:09:52.727Z,2.47
2018-01-29T13:12:19.234Z,2.10
2018-01-29T13:14:45.744Z,2.13
2018-01-29T13:17:12.174Z,2.17
2018-01-29T13:19:38.707Z,2.07
2018-01-29T13:22:06.000Z,1.90
2018-01-29T13:24:33.357Z,2.10
2018-01-29T13:26:59.977Z,1.93
2018-01-29T13:29:26.523Z,1.90
2018-01-29T13:31:52.988Z,2.53
2018-01-29T13:34:19.462Z,2.00
2018-01-29T13:36:46.090Z,1.47
2018-01-29T13:39:12.632Z,2.40
2018-01-29T13:41:39.139Z,2.20
2018-01-29T13:44:06.417Z,3.17
2018-01-29T13:46:32.942Z,2.77
2018-01-29T13:49:00.182Z,2.17
2018-01-29T13:51:26.736Z,2.93
2018-01-29T13:53:53.185Z,2.27
2018-01-29T13:56:19.670Z,2.70
2018-01-29T13:58:46.163Z,2.43
2018-01-29T14:01:12.647Z,4.30
2018-01-29T14:03:39.899Z,2.73
2018-01-29T14:06:07.781Z,2.43
2018-01-29T14:08:34.340Z,2.90
2018-01-29T14:11:00.937Z,2.80
2018-01-29T14:13:27.466Z,2.80
2018-01-29T14:15:54.035Z,2.93
2018-01-29T14:18:20.570Z,3.07
2018-01-29T14:20:47.145Z,3.03
2018-01-29T14:23:13.652Z,3.33
2018-01-29T14:25:40.145Z,2.23
2018-01-29T14:28:06.818Z,2.73
2018-01-29T14:30:33.262Z,2.20
2018-01-29T14:32:59.769Z,2.70
2018-01-29T14:35:26.422Z,2.57
2018-01-29T14:37:53.028Z,1.43
2018-01-29T14:40:19.530Z,2.17
2018-01-29T14:42:46.714Z,2.30
2018-01-29T14:45:13.179Z,2.00
2018-01-29T14:47:40.412Z,2.20
2018-01-29T14:50:07.487Z,2.77
2018-01-29T14:52:34.780Z,1.83
2018-01-29T14:55:01.290Z,2.00
2018-01-29T14:57:27.987Z,2.53
2018-01-29T14:59:54.649Z,2.53
2018-01-29T15:02:21.320Z,2.37
2018-01-29T15:04:47.891Z,2.80
2018-01-29T15:07:14.437Z,2.37
2018-01-29T15:09:41.771Z,1.67
2018-01-29T15:12:08.968Z,2.00
2018-01-29T15:14:35.599Z,1.80
2018-01-29T15:17:02.141Z,2.53
2018-01-29T15:19:28.649Z,1.97
2018-01-29T15:21:55.630Z,2.30
2018-01-29T15:24:22.191Z,2.43
2018-01-29T15:26:48.890Z,2.23
2018-01-29T15:29:15.594Z,2.20
2018-01-29T15:31:42.158Z,2.40
2018-01-29T15:34:10.045Z,2.90
2018-01-29T15:36:36.586Z,2.43
2018-01-29T15:39:03.782Z,2.60
2018-01-29T15:41:30.814Z,2.50
2018-01-29T15:43:57.427Z,3.43
2018-01-29T15:46:23.997Z,3.03
2018-01-29T15:48:50.526Z,2.93
2018-01-29T15:51:17.421Z,2.53
2018-01-29T15:53:44.650Z,2.90
2018-01-29T15:56:11.367Z,3.70
2018-01-29T15:58:47.393Z,3.00
2018-01-29T16:01:14.012Z,2.20
2018-01-29T16:03:40.698Z,1.97
2018-01-29T16:06:07.752Z,2.03
2018-01-29T16:08:34.426Z,2.30
2018-01-29T16:11:01.123Z,1.90
2018-01-29T16:13:27.868Z,2.00
2018-01-29T16:15:55.564Z,2.20
2018-01-29T16:18:22.354Z,1.80
2018-01-29T16:20:49.865Z,2.30
2018-01-29T16:23:18.166Z,2.63
2018-01-29T16:25:45.328Z,1.60
2018-01-29T16:28:12.178Z,1.60
2018-01-29T16:30:39.548Z,2.30
2018-01-29T16:33:07.602Z,1.40
2018-01-29T16:35:35.147Z,1.80
2018-01-29T16:38:01.936Z,2.03
2018-01-29T16:40:28.673Z,1.80
2018-01-29T16:42:55.416Z,2.30
2018-01-29T16:45:21.950Z,2.67
2018-01-29T16:47:48.725Z,1.80
2018-01-29T16:50:15.208Z,2.27
2018-01-29T16:52:41.647Z,2.50
2018-01-29T16:55:08.263Z,2.13
2018-01-29T16:57:34.684Z,3.23
2018-01-29T17:00:01.154Z,3.53
2018-01-29T17:02:27.661Z,3.13
2018-01-29T17:04:54.127Z,2.37
2018-01-29T17:07:20.630Z,1.87
2018-01-29T17:09:47.241Z,2.30
2018-01-29T17:12:14.469Z,3.60
2018-01-29T17:14:41.633Z,3.07
2018-01-29T17:17:08.777Z,4.10
2018-01-29T17:19:35.262Z,4.03
2018-01-29T17:22:01.946Z,3.80
2018-01-29T17:24:28.390Z,3.10
2018-01-29T17:26:54.901Z,4.17
2018-01-29T17:29:21.396Z,3.47
2018-01-29T17:31:48.798Z,3.60
2018-01-29T17:34:15.321Z,3.10
2018-01-29T17:36:42.569Z,3.80
2018-01-29T17:39:09.793Z,5.13
2018-01-29T17:41:36.271Z,4.90
2018-01-29T17:44:04.335Z,5.47
2018-01-29T17:46:31.544Z,5.40
2018-01-29T17:48:58.002Z,5.43
2018-01-29T17:51:24.539Z,4.90
2018-01-29T17:53:51.008Z,5.27
2018-01-29T17:56:17.966Z,5.87
2018-01-29T17:58:44.440Z,5.27
2018-01-29T18:01:11.674Z,6.43
2018-01-29T18:03:38.108Z,5.20
2018-01-29T18:06:05.192Z,3.77
2018-01-29T18:08:32.395Z,6.50
2018-01-29T18:10:59.674Z,4.90
2018-01-29T18:13:26.147Z,5.93
2018-01-29T18:15:52.685Z,5.33
2018-01-29T18:18:19.097Z,5.27
2018-01-29T18:20:45.543Z,6.80
2018-01-29T18:23:12.926Z,7.27
2018-01-29T18:25:39.411Z,6.30
2018-01-29T18:28:06.885Z,7.00
2018-01-29T18:30:33.353Z,8.70
2018-01-29T18:32:59.899Z,11.17
2018-01-29T18:35:26.336Z,12.03
2018-01-29T18:37:52.800Z,11.53
2018-01-29T18:40:19.329Z,13.17
2018-01-29T18:42:45.791Z,9.70
2018-01-29T18:45:13.006Z,5.57
2018-01-29T18:47:39.421Z,4.40
2018-01-29T18:50:07.054Z,4.47
2018-01-29T18:52:33.511Z,5.23
2018-01-29T18:55:00.073Z,5.47
2018-01-29T18:57:27.341Z,5.70
2018-01-29T18:59:54.487Z,6.60
2018-01-29T19:02:20.909Z,5.40
2018-01-29T19:04:48.170Z,6.50
2018-01-29T19:07:14.614Z,3.60
2018-01-29T19:09:41.022Z,3.00
2018-01-29T19:12:07.811Z,2.90
2018-01-29T19:14:34.297Z,2.50
2018-01-29T19:17:01.452Z,2.90
2018-01-29T19:19:27.949Z,2.83
2018-01-29T19:21:54.567Z,2.37
2018-01-29T19:24:21.789Z,3.27
2018-01-29T19:26:48.971Z,2.73
2018-01-29T19:29:16.108Z,2.83
2018-01-29T19:31:42.654Z,3.00
2018-01-29T19:34:09.111Z,2.60
2018-01-29T19:36:37.092Z,2.77
2018-01-29T19:39:04.210Z,3.53
2018-01-29T19:41:30.814Z,3.47
2018-01-29T19:43:57.398Z,4.17
2018-01-29T19:46:23.802Z,2.20
2018-01-29T19:48:50.322Z,2.70
2018-01-29T19:51:16.782Z,2.90
2018-01-29T19:53:43.245Z,2.63
2018-01-29T19:56:10.443Z,2.60
2018-01-29T19:58:36.902Z,2.30
2018-01-29T20:01:03.676Z,2.90
2018-01-29T20:03:30.230Z,1.83
2018-01-29T20:05:56.684Z,1.93
2018-01-29T20:08:23.317Z,1.80
2018-01-29T20:10:50.581Z,1.90
2018-01-29T20:13:17.036Z,1.90
2018-01-29T20:15:43.475Z,2.73
2018-01-29T20:18:10.698Z,2.07
2018-01-29T20:20:37.883Z,1.67
2018-01-29T20:23:04.861Z,2.10
2018-01-29T20:25:32.881Z,1.47
2018-01-29T20:27:59.372Z,1.90
2018-01-29T20:30:25.838Z,1.10
2018-01-29T20:32:52.239Z,1.23
2018-01-29T20:35:18.713Z,1.70
2018-01-29T20:37:45.169Z,1.27
2018-01-29T20:40:11.698Z,2.00
2018-01-29T20:42:38.105Z,3.77
2018-01-29T20:45:05.105Z,4.47
2018-01-29T20:47:32.329Z,4.50
2018-01-29T20:49:58.815Z,7.50
2018-01-29T20:52:25.327Z,5.80
2018-01-29T20:54:52.207Z,2.87
2018-01-29T20:57:18.721Z,4.40
2018-01-29T20:59:45.190Z,3.87
2018-01-29T21:02:11.727Z,3.60
2018-01-29T21:04:38.230Z,2.83
2018-01-29T21:07:05.193Z,2.53
2018-01-29T21:09:32.407Z,2.87
2018-01-29T21:11:58.934Z,3.40
2018-01-29T21:14:25.557Z,3.80
2018-01-29T21:16:52.803Z,3.40
2018-01-29T21:19:19.293Z,3.30
2018-01-29T21:21:45.791Z,3.40
2018-01-29T21:24:12.277Z,3.57
2018-01-29T21:26:38.884Z,3.87
2018-01-29T21:29:05.844Z,3.80
2018-01-29T21:31:33.084Z,4.67
2018-01-29T21:33:59.839Z,5.13
2018-01-29T21:36:26.307Z,5.33
2018-01-29T21:38:54.210Z,5.60
2018-01-29T21:41:21.441Z,3.83
2018-01-29T21:43:48.694Z,6.73
2018-01-29T21:46:15.140Z,3.40
2018-01-29T21:48:41.703Z,5.80
2018-01-29T21:51:08.937Z,2.93
2018-01-29T21:53:35.461Z,3.17
2018-01-29T21:56:02.156Z,2.00
2018-01-29T21:58:29.422Z,2.33
2018-01-29T22:00:56.156Z,3.70
2018-01-29T22:03:22.554Z,2.50
2018-01-29T22:05:49.736Z,2.17
2018-01-29T22:08:16.197Z,2.20
2018-01-29T22:10:42.660Z,2.87
2018-01-29T22:13:09.110Z,2.90
2018-01-29T22:15:35.637Z,3.00
2018-01-29T22:18:03.448Z,2.50
2018-01-29T22:20:30.141Z,2.57
2018-01-29T22:22:56.622Z,3.40
2018-01-29T22:25:23.171Z,3.60
2018-01-29T22:27:49.677Z,4.90
2018-01-29T22:30:16.109Z,6.03
2018-01-29T22:32:42.549Z,4.37
2018-01-29T22:35:08.965Z,3.87
2018-01-29T22:37:35.384Z,5.03
2018-01-29T22:40:01.954Z,4.20
2018-01-29T22:42:28.435Z,7.00
2018-01-29T22:44:54.909Z,5.37
2018-01-29T22:47:21.354Z,7.37
2018-01-29T22:49:47.864Z,3.80
2018-01-29T22:52:14.314Z,3.70
2018-01-29T22:54:40.778Z,3.47
2018-01-29T22:57:07.349Z,4.00
2018-01-29T22:59:33.847Z,2.63
2018-01-29T23:02:00.312Z,3.03
2018-01-29T23:04:27.457Z,4.20
2018-01-29T23:06:53.848Z,2.30
2018-01-29T23:09:20.288Z,3.40
2018-01-29T23:11:47.627Z,2.73
2018-01-29T23:14:14.203Z,2.90
2018-01-29T23:16:40.671Z,2.97
2018-01-29T23:19:07.122Z,2.90
2018-01-29T23:21:33.583Z,2.70
2018-01-29T23:24:00.798Z,4.43
2018-01-29T23:26:27.254Z,4.10
2018-01-29T23:28:53.684Z,6.83
2018-01-29T23:31:20.106Z,6.03
2018-01-29T23:33:47.279Z,3.60
2018-01-29T23:36:13.719Z,3.63
2018-01-29T23:38:40.179Z,2.70
2018-01-29T23:41:06.594Z,3.17
2018-01-29T23:43:33.801Z,4.00
2018-01-29T23:46:00.211Z,2.93
2018-01-29T23:48:27.417Z,5.67
2018-01-29T23:50:53.841Z,5.57
2018-01-29T23:53:21.016Z,7.27
2018-01-29T23:55:47.432Z,6.80
2018-01-29T23:58:13.918Z,6.80
